sensor_id;sensor_type;location;lat;lon;timestamp;P1;durP1;ratioP1;P2;durP2;ratioP2
77018;SDS011;66044;53.142;17.962;2023-07-24T00:00:44;8.20;;;3.80;;
77018;SDS011;66044;53.142;17.962;2023-07-24T00:03:29;7.20;;;3.10;;
77018;SDS011;66044;53.142;17.962;2023-07-24T00:05:58;6.90;;;3.00;;
77018;SDS011;66044;53.142;17.962;2023-07-24T00:08:28;7.90;;;3.10;;
77018;SDS011;66044;53.142;17.962;2023-07-24T00:10:54;9.20;;;3.20;;
77018;SDS011;66044;53.142;17.962;2023-07-24T00:13:21;6.70;;;2.90;;
77018;SDS011;66044;53.142;17.962;2023-07-24T00:15:47;7.50;;;3.20;;
77018;SDS011;66044;53.142;17.962;2023-07-24T00:18:14;7.10;;;3.20;;
77018;SDS011;66044;53.142;17.962;2023-07-24T00:20:40;7.20;;;2.80;;
77018;SDS011;66044;53.142;17.962;2023-07-24T00:23:06;7.20;;;2.70;;
77018;SDS011;66044;53.142;17.962;2023-07-24T00:25:33;8.80;;;3.20;;
77018;SDS011;66044;53.142;17.962;2023-07-24T00:27:59;7.80;;;3.20;;
77018;SDS011;66044;53.142;17.962;2023-07-24T00:30:26;7.90;;;3.20;;
77018;SDS011;66044;53.142;17.962;2023-07-24T00:32:52;8.40;;;3.50;;
77018;SDS011;66044;53.142;17.962;2023-07-24T00:35:18;7.70;;;3.00;;
77018;SDS011;66044;53.142;17.962;2023-07-24T00:37:45;7.90;;;3.20;;
77018;SDS011;66044;53.142;17.962;2023-07-24T00:40:11;8.20;;;3.20;;
77018;SDS011;66044;53.142;17.962;2023-07-24T00:42:38;6.80;;;3.20;;
77018;SDS011;66044;53.142;17.962;2023-07-24T00:45:04;7.00;;;3.00;;
77018;SDS011;66044;53.142;17.962;2023-07-24T00:47:31;8.50;;;3.10;;
77018;SDS011;66044;53.142;17.962;2023-07-24T00:50:00;9.80;;;3.30;;
77018;SDS011;66044;53.142;17.962;2023-07-24T00:52:26;9.50;;;3.20;;
77018;SDS011;66044;53.142;17.962;2023-07-24T00:54:53;8.20;;;3.00;;
77018;SDS011;66044;53.142;17.962;2023-07-24T00:57:19;8.20;;;3.30;;
77018;SDS011;66044;53.142;17.962;2023-07-24T00:59:46;8.60;;;3.20;;
77018;SDS011;66044;53.142;17.962;2023-07-24T01:02:12;8.40;;;3.10;;
77018;SDS011;66044;53.142;17.962;2023-07-24T01:04:39;10.50;;;3.00;;
77018;SDS011;66044;53.142;17.962;2023-07-24T01:07:06;8.40;;;3.60;;
77018;SDS011;66044;53.142;17.962;2023-07-24T01:09:32;9.60;;;3.90;;
77018;SDS011;66044;53.142;17.962;2023-07-24T01:12:00;9.60;;;3.30;;
77018;SDS011;66044;53.142;17.962;2023-07-24T01:14:35;9.10;;;3.30;;
77018;SDS011;66044;53.142;17.962;2023-07-24T01:17:10;7.90;;;2.90;;
77018;SDS011;66044;53.142;17.962;2023-07-24T01:19:46;7.90;;;3.00;;
77018;SDS011;66044;53.142;17.962;2023-07-24T01:22:20;8.20;;;3.60;;
77018;SDS011;66044;53.142;17.962;2023-07-24T01:25:00;10.40;;;3.30;;
77018;SDS011;66044;53.142;17.962;2023-07-24T01:27:33;8.60;;;3.20;;
77018;SDS011;66044;53.142;17.962;2023-07-24T01:29:59;8.70;;;3.40;;
77018;SDS011;66044;53.142;17.962;2023-07-24T01:32:26;9.10;;;3.70;;
77018;SDS011;66044;53.142;17.962;2023-07-24T01:34:53;8.80;;;4.00;;
77018;SDS011;66044;53.142;17.962;2023-07-24T01:37:20;7.80;;;3.60;;
77018;SDS011;66044;53.142;17.962;2023-07-24T01:39:48;8.90;;;4.50;;
77018;SDS011;66044;53.142;17.962;2023-07-24T01:42:16;8.40;;;4.40;;
77018;SDS011;66044;53.142;17.962;2023-07-24T01:44:43;8.90;;;3.80;;
77018;SDS011;66044;53.142;17.962;2023-07-24T01:47:09;8.10;;;3.80;;
77018;SDS011;66044;53.142;17.962;2023-07-24T01:49:36;7.70;;;3.70;;
77018;SDS011;66044;53.142;17.962;2023-07-24T01:52:02;8.00;;;3.90;;
77018;SDS011;66044;53.142;17.962;2023-07-24T01:54:30;8.20;;;3.90;;
77018;SDS011;66044;53.142;17.962;2023-07-24T01:56:56;8.10;;;3.70;;
77018;SDS011;66044;53.142;17.962;2023-07-24T01:59:23;8.20;;;3.80;;
77018;SDS011;66044;53.142;17.962;2023-07-24T02:01:49;7.70;;;4.10;;
77018;SDS011;66044;53.142;17.962;2023-07-24T02:04:15;7.80;;;3.70;;
77018;SDS011;66044;53.142;17.962;2023-07-24T02:06:42;8.90;;;3.90;;
77018;SDS011;66044;53.142;17.962;2023-07-24T02:09:09;7.40;;;3.80;;
77018;SDS011;66044;53.142;17.962;2023-07-24T02:11:36;8.20;;;3.80;;
77018;SDS011;66044;53.142;17.962;2023-07-24T02:14:02;7.50;;;3.80;;
77018;SDS011;66044;53.142;17.962;2023-07-24T02:16:28;8.10;;;3.50;;
77018;SDS011;66044;53.142;17.962;2023-07-24T02:18:55;8.90;;;4.00;;
77018;SDS011;66044;53.142;17.962;2023-07-24T02:21:21;7.30;;;3.70;;
77018;SDS011;66044;53.142;17.962;2023-07-24T02:23:48;8.00;;;4.10;;
77018;SDS011;66044;53.142;17.962;2023-07-24T02:26:14;8.00;;;3.90;;
77018;SDS011;66044;53.142;17.962;2023-07-24T02:28:41;8.30;;;4.10;;
77018;SDS011;66044;53.142;17.962;2023-07-24T02:31:07;8.30;;;3.60;;
77018;SDS011;66044;53.142;17.962;2023-07-24T02:33:34;8.00;;;3.80;;
77018;SDS011;66044;53.142;17.962;2023-07-24T02:36:00;8.50;;;3.80;;
77018;SDS011;66044;53.142;17.962;2023-07-24T02:38:27;7.40;;;3.90;;
77018;SDS011;66044;53.142;17.962;2023-07-24T02:40:53;8.00;;;3.70;;
77018;SDS011;66044;53.142;17.962;2023-07-24T02:43:20;8.70;;;4.50;;
77018;SDS011;66044;53.142;17.962;2023-07-24T02:45:46;8.00;;;3.90;;
77018;SDS011;66044;53.142;17.962;2023-07-24T02:48:12;9.50;;;4.40;;
77018;SDS011;66044;53.142;17.962;2023-07-24T02:50:39;8.50;;;4.20;;
77018;SDS011;66044;53.142;17.962;2023-07-24T02:53:05;9.00;;;4.30;;
77018;SDS011;66044;53.142;17.962;2023-07-24T02:55:32;8.20;;;3.60;;
77018;SDS011;66044;53.142;17.962;2023-07-24T02:57:58;7.80;;;4.00;;
77018;SDS011;66044;53.142;17.962;2023-07-24T03:00:25;8.70;;;3.80;;
77018;SDS011;66044;53.142;17.962;2023-07-24T03:02:54;8.50;;;3.80;;
77018;SDS011;66044;53.142;17.962;2023-07-24T03:05:21;8.30;;;3.70;;
77018;SDS011;66044;53.142;17.962;2023-07-24T03:07:47;8.30;;;4.30;;
77018;SDS011;66044;53.142;17.962;2023-07-24T03:10:13;7.90;;;4.10;;
77018;SDS011;66044;53.142;17.962;2023-07-24T03:12:40;8.40;;;4.10;;
77018;SDS011;66044;53.142;17.962;2023-07-24T03:15:06;7.80;;;3.70;;
77018;SDS011;66044;53.142;17.962;2023-07-24T03:17:33;7.20;;;3.60;;
77018;SDS011;66044;53.142;17.962;2023-07-24T03:20:07;7.70;;;4.00;;
77018;SDS011;66044;53.142;17.962;2023-07-24T03:22:41;7.60;;;3.60;;
77018;SDS011;66044;53.142;17.962;2023-07-24T03:25:08;11.00;;;3.30;;
77018;SDS011;66044;53.142;17.962;2023-07-24T03:27:35;7.60;;;3.90;;
77018;SDS011;66044;53.142;17.962;2023-07-24T03:30:01;10.70;;;5.60;;
77018;SDS011;66044;53.142;17.962;2023-07-24T03:32:29;10.00;;;4.90;;
77018;SDS011;66044;53.142;17.962;2023-07-24T03:34:55;10.90;;;3.30;;
77018;SDS011;66044;53.142;17.962;2023-07-24T03:37:22;6.90;;;2.80;;
77018;SDS011;66044;53.142;17.962;2023-07-24T03:39:48;8.20;;;3.40;;
77018;SDS011;66044;53.142;17.962;2023-07-24T03:42:24;8.30;;;3.30;;
77018;SDS011;66044;53.142;17.962;2023-07-24T03:44:54;7.30;;;2.60;;
77018;SDS011;66044;53.142;17.962;2023-07-24T03:47:21;6.80;;;2.50;;
77018;SDS011;66044;53.142;17.962;2023-07-24T03:49:48;6.90;;;2.20;;
77018;SDS011;66044;53.142;17.962;2023-07-24T03:52:15;8.00;;;2.40;;
77018;SDS011;66044;53.142;17.962;2023-07-24T03:54:42;6.10;;;2.30;;
77018;SDS011;66044;53.142;17.962;2023-07-24T03:57:08;5.90;;;2.20;;
77018;SDS011;66044;53.142;17.962;2023-07-24T03:59:35;6.50;;;2.30;;
77018;SDS011;66044;53.142;17.962;2023-07-24T04:02:02;5.90;;;1.90;;
77018;SDS011;66044;53.142;17.962;2023-07-24T04:04:28;5.90;;;2.00;;
77018;SDS011;66044;53.142;17.962;2023-07-24T04:06:55;5.70;;;1.90;;
77018;SDS011;66044;53.142;17.962;2023-07-24T04:09:21;5.40;;;2.10;;
77018;SDS011;66044;53.142;17.962;2023-07-24T04:11:47;6.00;;;1.90;;
77018;SDS011;66044;53.142;17.962;2023-07-24T04:14:14;6.30;;;2.00;;
77018;SDS011;66044;53.142;17.962;2023-07-24T04:16:40;5.90;;;1.90;;
77018;SDS011;66044;53.142;17.962;2023-07-24T04:19:07;5.60;;;1.70;;
77018;SDS011;66044;53.142;17.962;2023-07-24T04:21:34;5.20;;;1.70;;
77018;SDS011;66044;53.142;17.962;2023-07-24T04:24:01;5.90;;;2.00;;
77018;SDS011;66044;53.142;17.962;2023-07-24T04:26:28;6.80;;;2.10;;
77018;SDS011;66044;53.142;17.962;2023-07-24T04:28:54;5.60;;;2.00;;
77018;SDS011;66044;53.142;17.962;2023-07-24T04:31:21;7.00;;;2.00;;
77018;SDS011;66044;53.142;17.962;2023-07-24T04:33:47;5.70;;;1.90;;
77018;SDS011;66044;53.142;17.962;2023-07-24T04:36:13;6.00;;;2.10;;
77018;SDS011;66044;53.142;17.962;2023-07-24T04:38:40;4.80;;;1.30;;
77018;SDS011;66044;53.142;17.962;2023-07-24T04:41:06;6.10;;;2.00;;
77018;SDS011;66044;53.142;17.962;2023-07-24T04:43:33;8.50;;;2.00;;
77018;SDS011;66044;53.142;17.962;2023-07-24T04:46:00;5.60;;;1.50;;
77018;SDS011;66044;53.142;17.962;2023-07-24T04:48:26;5.60;;;1.80;;
77018;SDS011;66044;53.142;17.962;2023-07-24T04:50:53;6.30;;;1.80;;
77018;SDS011;66044;53.142;17.962;2023-07-24T04:53:23;5.50;;;1.60;;
77018;SDS011;66044;53.142;17.962;2023-07-24T04:55:50;5.20;;;1.90;;
77018;SDS011;66044;53.142;17.962;2023-07-24T04:58:16;6.60;;;1.80;;
77018;SDS011;66044;53.142;17.962;2023-07-24T05:00:43;5.90;;;1.80;;
77018;SDS011;66044;53.142;17.962;2023-07-24T05:03:09;7.20;;;2.10;;
77018;SDS011;66044;53.142;17.962;2023-07-24T05:05:37;5.60;;;1.90;;
77018;SDS011;66044;53.142;17.962;2023-07-24T05:08:04;4.80;;;1.60;;
77018;SDS011;66044;53.142;17.962;2023-07-24T05:10:35;5.50;;;1.80;;
77018;SDS011;66044;53.142;17.962;2023-07-24T05:13:02;7.20;;;1.90;;
77018;SDS011;66044;53.142;17.962;2023-07-24T05:15:29;6.20;;;1.80;;
77018;SDS011;66044;53.142;17.962;2023-07-24T05:17:55;5.30;;;1.60;;
77018;SDS011;66044;53.142;17.962;2023-07-24T05:20:22;5.40;;;1.90;;
77018;SDS011;66044;53.142;17.962;2023-07-24T05:22:48;6.60;;;1.90;;
77018;SDS011;66044;53.142;17.962;2023-07-24T05:25:14;5.50;;;1.80;;
77018;SDS011;66044;53.142;17.962;2023-07-24T05:27:41;6.20;;;1.70;;
77018;SDS011;66044;53.142;17.962;2023-07-24T05:30:08;5.40;;;2.00;;
77018;SDS011;66044;53.142;17.962;2023-07-24T05:32:35;6.00;;;2.30;;
77018;SDS011;66044;53.142;17.962;2023-07-24T05:35:01;6.40;;;2.20;;
77018;SDS011;66044;53.142;17.962;2023-07-24T05:37:27;7.90;;;2.30;;
77018;SDS011;66044;53.142;17.962;2023-07-24T05:39:54;5.30;;;2.00;;
77018;SDS011;66044;53.142;17.962;2023-07-24T05:42:20;5.10;;;1.70;;
77018;SDS011;66044;53.142;17.962;2023-07-24T05:44:47;8.00;;;1.90;;
77018;SDS011;66044;53.142;17.962;2023-07-24T05:47:13;6.80;;;1.60;;
77018;SDS011;66044;53.142;17.962;2023-07-24T05:49:39;5.60;;;1.60;;
77018;SDS011;66044;53.142;17.962;2023-07-24T05:52:06;5.90;;;1.60;;
77018;SDS011;66044;53.142;17.962;2023-07-24T05:54:33;6.10;;;1.80;;
77018;SDS011;66044;53.142;17.962;2023-07-24T05:56:59;5.80;;;1.80;;
77018;SDS011;66044;53.142;17.962;2023-07-24T05:59:25;6.50;;;1.80;;
77018;SDS011;66044;53.142;17.962;2023-07-24T06:01:52;6.80;;;1.90;;
77018;SDS011;66044;53.142;17.962;2023-07-24T06:04:18;7.70;;;2.80;;
77018;SDS011;66044;53.142;17.962;2023-07-24T06:06:45;5.80;;;2.00;;
77018;SDS011;66044;53.142;17.962;2023-07-24T06:09:11;5.60;;;2.10;;
77018;SDS011;66044;53.142;17.962;2023-07-24T06:11:38;12.10;;;3.30;;
77018;SDS011;66044;53.142;17.962;2023-07-24T06:14:04;6.50;;;2.50;;
77018;SDS011;66044;53.142;17.962;2023-07-24T06:16:30;5.30;;;1.90;;
77018;SDS011;66044;53.142;17.962;2023-07-24T06:18:57;6.50;;;2.00;;
77018;SDS011;66044;53.142;17.962;2023-07-24T06:21:23;8.40;;;2.00;;
77018;SDS011;66044;53.142;17.962;2023-07-24T06:23:50;5.50;;;1.90;;
77018;SDS011;66044;53.142;17.962;2023-07-24T06:26:16;8.30;;;2.40;;
77018;SDS011;66044;53.142;17.962;2023-07-24T06:28:42;7.20;;;2.70;;
77018;SDS011;66044;53.142;17.962;2023-07-24T06:31:09;6.40;;;2.60;;
77018;SDS011;66044;53.142;17.962;2023-07-24T06:33:35;5.60;;;2.10;;
77018;SDS011;66044;53.142;17.962;2023-07-24T06:36:02;5.10;;;2.00;;
77018;SDS011;66044;53.142;17.962;2023-07-24T06:38:28;7.00;;;2.40;;
77018;SDS011;66044;53.142;17.962;2023-07-24T06:40:55;6.30;;;2.30;;
77018;SDS011;66044;53.142;17.962;2023-07-24T06:43:21;5.90;;;2.10;;
77018;SDS011;66044;53.142;17.962;2023-07-24T06:45:48;5.20;;;1.80;;
77018;SDS011;66044;53.142;17.962;2023-07-24T06:48:14;7.20;;;3.10;;
77018;SDS011;66044;53.142;17.962;2023-07-24T06:50:40;7.30;;;2.80;;
77018;SDS011;66044;53.142;17.962;2023-07-24T06:53:07;7.80;;;2.40;;
77018;SDS011;66044;53.142;17.962;2023-07-24T06:55:33;8.60;;;2.80;;
77018;SDS011;66044;53.142;17.962;2023-07-24T06:58:00;6.70;;;2.30;;
77018;SDS011;66044;53.142;17.962;2023-07-24T07:00:26;5.80;;;2.00;;
77018;SDS011;66044;53.142;17.962;2023-07-24T07:02:52;7.00;;;2.40;;
77018;SDS011;66044;53.142;17.962;2023-07-24T07:05:19;6.60;;;2.20;;
77018;SDS011;66044;53.142;17.962;2023-07-24T07:07:45;6.40;;;2.40;;
77018;SDS011;66044;53.142;17.962;2023-07-24T07:10:12;7.00;;;2.40;;
77018;SDS011;66044;53.142;17.962;2023-07-24T07:12:38;6.80;;;2.50;;
77018;SDS011;66044;53.142;17.962;2023-07-24T07:15:05;5.80;;;2.50;;
77018;SDS011;66044;53.142;17.962;2023-07-24T07:17:32;6.20;;;2.60;;
77018;SDS011;66044;53.142;17.962;2023-07-24T07:19:58;6.20;;;2.30;;
77018;SDS011;66044;53.142;17.962;2023-07-24T07:22:24;6.20;;;2.10;;
77018;SDS011;66044;53.142;17.962;2023-07-24T07:24:51;6.10;;;2.30;;
77018;SDS011;66044;53.142;17.962;2023-07-24T07:27:17;5.90;;;2.20;;
77018;SDS011;66044;53.142;17.962;2023-07-24T07:29:44;6.40;;;2.20;;
77018;SDS011;66044;53.142;17.962;2023-07-24T07:32:10;10.10;;;2.50;;
77018;SDS011;66044;53.142;17.962;2023-07-24T07:34:37;6.80;;;2.50;;
77018;SDS011;66044;53.142;17.962;2023-07-24T07:37:05;7.70;;;3.30;;
77018;SDS011;66044;53.142;17.962;2023-07-24T07:39:32;7.00;;;3.30;;
77018;SDS011;66044;53.142;17.962;2023-07-24T07:41:59;13.70;;;4.40;;
77018;SDS011;66044;53.142;17.962;2023-07-24T07:44:25;7.50;;;4.20;;
77018;SDS011;66044;53.142;17.962;2023-07-24T07:46:51;9.30;;;4.70;;
77018;SDS011;66044;53.142;17.962;2023-07-24T07:49:18;6.70;;;3.10;;
77018;SDS011;66044;53.142;17.962;2023-07-24T07:51:44;7.70;;;3.20;;
77018;SDS011;66044;53.142;17.962;2023-07-24T07:54:11;6.60;;;3.00;;
77018;SDS011;66044;53.142;17.962;2023-07-24T07:56:37;5.80;;;2.50;;
77018;SDS011;66044;53.142;17.962;2023-07-24T07:59:03;7.10;;;2.70;;
77018;SDS011;66044;53.142;17.962;2023-07-24T08:01:30;5.90;;;2.30;;
77018;SDS011;66044;53.142;17.962;2023-07-24T08:03:57;6.10;;;2.60;;
77018;SDS011;66044;53.142;17.962;2023-07-24T08:06:23;5.50;;;2.10;;
77018;SDS011;66044;53.142;17.962;2023-07-24T08:08:50;5.70;;;2.10;;
77018;SDS011;66044;53.142;17.962;2023-07-24T08:11:17;6.40;;;2.40;;
77018;SDS011;66044;53.142;17.962;2023-07-24T08:13:43;5.50;;;2.00;;
77018;SDS011;66044;53.142;17.962;2023-07-24T08:16:16;4.60;;;1.60;;
77018;SDS011;66044;53.142;17.962;2023-07-24T08:18:45;5.40;;;1.90;;
77018;SDS011;66044;53.142;17.962;2023-07-24T08:21:13;5.60;;;2.10;;
77018;SDS011;66044;53.142;17.962;2023-07-24T08:23:41;6.80;;;1.90;;
77018;SDS011;66044;53.142;17.962;2023-07-24T08:26:07;5.80;;;1.60;;
77018;SDS011;66044;53.142;17.962;2023-07-24T08:28:34;4.80;;;1.60;;
77018;SDS011;66044;53.142;17.962;2023-07-24T08:31:03;5.00;;;1.50;;
77018;SDS011;66044;53.142;17.962;2023-07-24T08:33:30;5.10;;;1.20;;
77018;SDS011;66044;53.142;17.962;2023-07-24T08:35:58;5.00;;;1.40;;
77018;SDS011;66044;53.142;17.962;2023-07-24T08:38:27;4.30;;;1.20;;
77018;SDS011;66044;53.142;17.962;2023-07-24T08:41:27;5.70;;;1.30;;
77018;SDS011;66044;53.142;17.962;2023-07-24T08:43:47;5.00;;;1.10;;
77018;SDS011;66044;53.142;17.962;2023-07-24T08:46:15;4.40;;;1.30;;
77018;SDS011;66044;53.142;17.962;2023-07-24T08:48:43;4.00;;;1.20;;
77018;SDS011;66044;53.142;17.962;2023-07-24T08:51:12;4.00;;;1.20;;
77018;SDS011;66044;53.142;17.962;2023-07-24T08:53:41;4.40;;;1.20;;
77018;SDS011;66044;53.142;17.962;2023-07-24T08:56:09;4.70;;;1.20;;
77018;SDS011;66044;53.142;17.962;2023-07-24T08:58:38;4.50;;;1.10;;
77018;SDS011;66044;53.142;17.962;2023-07-24T09:01:08;5.50;;;1.30;;
77018;SDS011;66044;53.142;17.962;2023-07-24T09:03:35;5.50;;;1.60;;
77018;SDS011;66044;53.142;17.962;2023-07-24T09:06:02;4.20;;;1.20;;
77018;SDS011;66044;53.142;17.962;2023-07-24T09:08:35;5.20;;;1.30;;
77018;SDS011;66044;53.142;17.962;2023-07-24T09:11:03;5.50;;;1.30;;
77018;SDS011;66044;53.142;17.962;2023-07-24T09:13:31;5.80;;;1.40;;
77018;SDS011;66044;53.142;17.962;2023-07-24T09:15:58;5.50;;;1.30;;
77018;SDS011;66044;53.142;17.962;2023-07-24T09:18:37;5.00;;;1.20;;
77018;SDS011;66044;53.142;17.962;2023-07-24T09:21:09;5.00;;;1.40;;
77018;SDS011;66044;53.142;17.962;2023-07-24T09:23:38;4.90;;;1.30;;
77018;SDS011;66044;53.142;17.962;2023-07-24T09:26:09;4.30;;;1.20;;
77018;SDS011;66044;53.142;17.962;2023-07-24T09:28:36;6.30;;;1.20;;
77018;SDS011;66044;53.142;17.962;2023-07-24T09:31:02;4.70;;;1.40;;
77018;SDS011;66044;53.142;17.962;2023-07-24T09:33:37;4.40;;;1.30;;
77018;SDS011;66044;53.142;17.962;2023-07-24T09:36:06;4.80;;;1.40;;
77018;SDS011;66044;53.142;17.962;2023-07-24T09:38:35;7.00;;;1.50;;
77018;SDS011;66044;53.142;17.962;2023-07-24T09:41:03;4.90;;;1.40;;
77018;SDS011;66044;53.142;17.962;2023-07-24T09:43:30;6.10;;;1.30;;
77018;SDS011;66044;53.142;17.962;2023-07-24T09:45:57;5.10;;;1.40;;
77018;SDS011;66044;53.142;17.962;2023-07-24T09:48:25;5.40;;;1.50;;
77018;SDS011;66044;53.142;17.962;2023-07-24T09:50:53;4.70;;;1.30;;
77018;SDS011;66044;53.142;17.962;2023-07-24T09:53:39;4.70;;;1.40;;
77018;SDS011;66044;53.142;17.962;2023-07-24T09:56:10;6.60;;;1.50;;
77018;SDS011;66044;53.142;17.962;2023-07-24T09:58:37;4.40;;;1.30;;
77018;SDS011;66044;53.142;17.962;2023-07-24T10:01:05;5.00;;;1.20;;
77018;SDS011;66044;53.142;17.962;2023-07-24T10:03:34;4.60;;;1.20;;
77018;SDS011;66044;53.142;17.962;2023-07-24T10:06:01;4.90;;;1.40;;
77018;SDS011;66044;53.142;17.962;2023-07-24T10:08:28;4.10;;;1.00;;
77018;SDS011;66044;53.142;17.962;2023-07-24T10:11:00;5.20;;;1.50;;
77018;SDS011;66044;53.142;17.962;2023-07-24T10:13:27;4.60;;;1.20;;
77018;SDS011;66044;53.142;17.962;2023-07-24T10:15:54;4.60;;;1.30;;
77018;SDS011;66044;53.142;17.962;2023-07-24T10:18:28;5.10;;;1.60;;
77018;SDS011;66044;53.142;17.962;2023-07-24T10:21:03;4.30;;;1.10;;
77018;SDS011;66044;53.142;17.962;2023-07-24T10:23:33;5.60;;;1.40;;
77018;SDS011;66044;53.142;17.962;2023-07-24T10:26:02;6.10;;;1.40;;
77018;SDS011;66044;53.142;17.962;2023-07-24T10:28:32;5.10;;;1.30;;
77018;SDS011;66044;53.142;17.962;2023-07-24T10:31:01;6.00;;;1.30;;
77018;SDS011;66044;53.142;17.962;2023-07-24T10:33:31;5.00;;;1.40;;
77018;SDS011;66044;53.142;17.962;2023-07-24T10:36:05;5.20;;;1.40;;
77018;SDS011;66044;53.142;17.962;2023-07-24T10:38:37;5.80;;;1.50;;
77018;SDS011;66044;53.142;17.962;2023-07-24T10:41:06;5.70;;;1.40;;
77018;SDS011;66044;53.142;17.962;2023-07-24T10:43:48;5.60;;;1.30;;
77018;SDS011;66044;53.142;17.962;2023-07-24T10:46:20;4.70;;;1.30;;
77018;SDS011;66044;53.142;17.962;2023-07-24T10:48:47;5.60;;;1.20;;
77018;SDS011;66044;53.142;17.962;2023-07-24T10:51:17;4.80;;;1.30;;
77018;SDS011;66044;53.142;17.962;2023-07-24T10:53:44;4.90;;;1.20;;
77018;SDS011;66044;53.142;17.962;2023-07-24T10:56:13;5.50;;;1.30;;
77018;SDS011;66044;53.142;17.962;2023-07-24T10:58:40;4.70;;;1.30;;
77018;SDS011;66044;53.142;17.962;2023-07-24T11:01:07;6.10;;;1.20;;
77018;SDS011;66044;53.142;17.962;2023-07-24T11:03:37;6.60;;;1.70;;
77018;SDS011;66044;53.142;17.962;2023-07-24T11:06:19;5.50;;;1.40;;
77018;SDS011;66044;53.142;17.962;2023-07-24T11:08:51;4.80;;;1.30;;
77018;SDS011;66044;53.142;17.962;2023-07-24T11:11:29;4.30;;;1.20;;
77018;SDS011;66044;53.142;17.962;2023-07-24T11:13:56;4.50;;;1.20;;
77018;SDS011;66044;53.142;17.962;2023-07-24T11:16:23;4.00;;;1.10;;
77018;SDS011;66044;53.142;17.962;2023-07-24T11:18:50;4.00;;;1.00;;
77018;SDS011;66044;53.142;17.962;2023-07-24T11:21:22;4.40;;;1.20;;
77018;SDS011;66044;53.142;17.962;2023-07-24T11:23:51;3.80;;;0.90;;
77018;SDS011;66044;53.142;17.962;2023-07-24T11:26:19;5.60;;;1.40;;
77018;SDS011;66044;53.142;17.962;2023-07-24T11:28:48;4.20;;;1.00;;
77018;SDS011;66044;53.142;17.962;2023-07-24T11:31:15;4.90;;;1.10;;
77018;SDS011;66044;53.142;17.962;2023-07-24T11:33:42;4.90;;;1.20;;
77018;SDS011;66044;53.142;17.962;2023-07-24T11:36:09;4.30;;;1.10;;
77018;SDS011;66044;53.142;17.962;2023-07-24T11:38:36;4.70;;;1.10;;
77018;SDS011;66044;53.142;17.962;2023-07-24T11:41:05;5.80;;;1.10;;
77018;SDS011;66044;53.142;17.962;2023-07-24T11:43:33;4.30;;;1.10;;
77018;SDS011;66044;53.142;17.962;2023-07-24T11:45:59;4.10;;;1.10;;
77018;SDS011;66044;53.142;17.962;2023-07-24T11:48:26;3.80;;;1.00;;
77018;SDS011;66044;53.142;17.962;2023-07-24T11:50:53;4.30;;;1.10;;
77018;SDS011;66044;53.142;17.962;2023-07-24T11:53:22;3.90;;;1.00;;
77018;SDS011;66044;53.142;17.962;2023-07-24T11:55:51;4.30;;;1.00;;
77018;SDS011;66044;53.142;17.962;2023-07-24T11:58:19;4.00;;;1.10;;
77018;SDS011;66044;53.142;17.962;2023-07-24T12:00:47;5.40;;;1.10;;
77018;SDS011;66044;53.142;17.962;2023-07-24T12:03:24;6.60;;;1.10;;
77018;SDS011;66044;53.142;17.962;2023-07-24T12:05:52;4.00;;;1.00;;
77018;SDS011;66044;53.142;17.962;2023-07-24T12:08:34;4.10;;;0.90;;
77018;SDS011;66044;53.142;17.962;2023-07-24T12:11:02;4.00;;;1.00;;
77018;SDS011;66044;53.142;17.962;2023-07-24T12:13:29;3.80;;;1.10;;
77018;SDS011;66044;53.142;17.962;2023-07-24T12:15:55;6.10;;;1.10;;
77018;SDS011;66044;53.142;17.962;2023-07-24T12:18:21;4.90;;;1.10;;
77018;SDS011;66044;53.142;17.962;2023-07-24T12:20:51;4.50;;;1.10;;
77018;SDS011;66044;53.142;17.962;2023-07-24T12:23:17;4.00;;;1.00;;
77018;SDS011;66044;53.142;17.962;2023-07-24T12:25:44;4.60;;;1.00;;
77018;SDS011;66044;53.142;17.962;2023-07-24T12:28:10;5.60;;;0.80;;
77018;SDS011;66044;53.142;17.962;2023-07-24T12:30:36;3.70;;;1.10;;
77018;SDS011;66044;53.142;17.962;2023-07-24T12:33:03;4.60;;;1.20;;
77018;SDS011;66044;53.142;17.962;2023-07-24T12:35:29;4.10;;;0.80;;
77018;SDS011;66044;53.142;17.962;2023-07-24T12:37:56;3.60;;;0.90;;
77018;SDS011;66044;53.142;17.962;2023-07-24T12:40:22;4.80;;;1.20;;
77018;SDS011;66044;53.142;17.962;2023-07-24T12:42:49;4.20;;;1.10;;
77018;SDS011;66044;53.142;17.962;2023-07-24T12:45:15;4.50;;;1.10;;
77018;SDS011;66044;53.142;17.962;2023-07-24T12:47:41;4.30;;;1.00;;
77018;SDS011;66044;53.142;17.962;2023-07-24T12:50:08;3.10;;;0.80;;
77018;SDS011;66044;53.142;17.962;2023-07-24T12:52:35;4.40;;;1.20;;
77018;SDS011;66044;53.142;17.962;2023-07-24T12:55:02;4.70;;;0.90;;
77018;SDS011;66044;53.142;17.962;2023-07-24T12:57:29;4.50;;;1.30;;
77018;SDS011;66044;53.142;17.962;2023-07-24T12:59:55;3.90;;;1.00;;
77018;SDS011;66044;53.142;17.962;2023-07-24T13:02:22;3.40;;;1.00;;
77018;SDS011;66044;53.142;17.962;2023-07-24T13:04:48;4.40;;;1.00;;
77018;SDS011;66044;53.142;17.962;2023-07-24T13:07:14;5.90;;;1.10;;
77018;SDS011;66044;53.142;17.962;2023-07-24T13:09:41;5.00;;;1.10;;
77018;SDS011;66044;53.142;17.962;2023-07-24T13:12:08;4.80;;;1.30;;
77018;SDS011;66044;53.142;17.962;2023-07-24T13:14:35;4.70;;;1.00;;
77018;SDS011;66044;53.142;17.962;2023-07-24T13:17:01;4.40;;;1.10;;
77018;SDS011;66044;53.142;17.962;2023-07-24T13:19:28;4.60;;;1.20;;
77018;SDS011;66044;53.142;17.962;2023-07-24T13:21:54;5.30;;;1.10;;
77018;SDS011;66044;53.142;17.962;2023-07-24T13:24:20;4.90;;;1.00;;
77018;SDS011;66044;53.142;17.962;2023-07-24T13:26:50;4.00;;;0.90;;
77018;SDS011;66044;53.142;17.962;2023-07-24T13:29:16;4.40;;;1.20;;
77018;SDS011;66044;53.142;17.962;2023-07-24T13:31:43;5.10;;;1.20;;
77018;SDS011;66044;53.142;17.962;2023-07-24T13:34:10;3.90;;;1.00;;
77018;SDS011;66044;53.142;17.962;2023-07-24T13:36:36;5.20;;;1.30;;
77018;SDS011;66044;53.142;17.962;2023-07-24T13:39:03;5.90;;;1.30;;
77018;SDS011;66044;53.142;17.962;2023-07-24T13:41:29;4.80;;;1.10;;
77018;SDS011;66044;53.142;17.962;2023-07-24T13:43:56;4.00;;;1.20;;
77018;SDS011;66044;53.142;17.962;2023-07-24T13:46:23;3.90;;;1.10;;
77018;SDS011;66044;53.142;17.962;2023-07-24T13:48:49;5.60;;;1.30;;
77018;SDS011;66044;53.142;17.962;2023-07-24T13:51:16;4.30;;;1.30;;
77018;SDS011;66044;53.142;17.962;2023-07-24T13:53:42;5.70;;;1.70;;
77018;SDS011;66044;53.142;17.962;2023-07-24T13:56:09;5.50;;;1.40;;
77018;SDS011;66044;53.142;17.962;2023-07-24T13:58:36;4.70;;;1.40;;
77018;SDS011;66044;53.142;17.962;2023-07-24T14:01:03;3.90;;;1.20;;
77018;SDS011;66044;53.142;17.962;2023-07-24T14:03:29;4.20;;;1.10;;
77018;SDS011;66044;53.142;17.962;2023-07-24T14:05:56;5.00;;;1.40;;
77018;SDS011;66044;53.142;17.962;2023-07-24T14:08:23;4.60;;;1.30;;
77018;SDS011;66044;53.142;17.962;2023-07-24T14:10:50;4.90;;;1.30;;
77018;SDS011;66044;53.142;17.962;2023-07-24T14:13:17;4.80;;;1.40;;
77018;SDS011;66044;53.142;17.962;2023-07-24T14:15:43;4.50;;;1.20;;
77018;SDS011;66044;53.142;17.962;2023-07-24T14:18:10;5.00;;;1.60;;
77018;SDS011;66044;53.142;17.962;2023-07-24T14:20:36;5.50;;;1.80;;
77018;SDS011;66044;53.142;17.962;2023-07-24T14:23:06;5.40;;;1.40;;
77018;SDS011;66044;53.142;17.962;2023-07-24T14:25:34;5.50;;;1.70;;
77018;SDS011;66044;53.142;17.962;2023-07-24T14:28:00;6.20;;;1.50;;
77018;SDS011;66044;53.142;17.962;2023-07-24T14:30:27;6.20;;;1.30;;
77018;SDS011;66044;53.142;17.962;2023-07-24T14:32:53;5.00;;;1.50;;
77018;SDS011;66044;53.142;17.962;2023-07-24T14:35:20;5.40;;;1.70;;